sensor_id;sensor_type;location;lat;lon;timestamp;P1;durP1;ratioP1;P2;durP2;ratioP2
73337;SDS011;61575;49.908;35.556;2023-02-26T00:00:56;61.58;;;28.77;;
73337;SDS011;61575;49.908;35.556;2023-02-26T00:04:01;54.53;;;29.17;;
73337;SDS011;61575;49.908;35.556;2023-02-26T00:07:06;56.15;;;28.98;;
73337;SDS011;61575;49.908;35.556;2023-02-26T00:10:12;54.78;;;27.55;;
73337;SDS011;61575;49.908;35.556;2023-02-26T00:13:18;55.95;;;28.73;;
73337;SDS011;61575;49.908;35.556;2023-02-26T00:19:25;58.42;;;28.98;;
73337;SDS011;61575;49.908;35.556;2023-02-26T00:22:27;52.23;;;27.13;;
73337;SDS011;61575;49.908;35.556;2023-02-26T00:25:29;52.07;;;27.90;;
73337;SDS011;61575;49.908;35.556;2023-02-26T00:28:31;54.97;;;27.07;;
73337;SDS011;61575;49.908;35.556;2023-02-26T00:31:34;54.03;;;28.02;;
73337;SDS011;61575;49.908;35.556;2023-02-26T00:34:36;51.80;;;27.10;;
73337;SDS011;61575;49.908;35.556;2023-02-26T00:40:54;54.17;;;26.85;;
73337;SDS011;61575;49.908;35.556;2023-02-26T00:43:57;51.17;;;26.92;;
73337;SDS011;61575;49.908;35.556;2023-02-26T00:47:05;51.22;;;25.83;;
73337;SDS011;61575;49.908;35.556;2023-02-26T00:53:35;53.28;;;26.73;;
73337;SDS011;61575;49.908;35.556;2023-02-26T00:56:51;50.50;;;25.88;;
73337;SDS011;61575;49.908;35.556;2023-02-26T00:59:54;57.53;;;26.80;;
73337;SDS011;61575;49.908;35.556;2023-02-26T01:02:56;47.45;;;25.80;;
73337;SDS011;61575;49.908;35.556;2023-02-26T01:06:01;48.40;;;26.08;;
73337;SDS011;61575;49.908;35.556;2023-02-26T01:12:28;54.60;;;25.83;;
73337;SDS011;61575;49.908;35.556;2023-02-26T01:15:32;48.83;;;25.20;;
73337;SDS011;61575;49.908;35.556;2023-02-26T01:18:39;49.00;;;26.25;;
73337;SDS011;61575;49.908;35.556;2023-02-26T01:21:47;48.28;;;24.85;;
73337;SDS011;61575;49.908;35.556;2023-02-26T01:24:55;51.55;;;26.15;;
73337;SDS011;61575;49.908;35.556;2023-02-26T01:28:06;47.25;;;23.90;;
73337;SDS011;61575;49.908;35.556;2023-02-26T01:31:11;46.17;;;23.90;;
73337;SDS011;61575;49.908;35.556;2023-02-26T01:34:33;43.20;;;22.97;;
73337;SDS011;61575;49.908;35.556;2023-02-26T01:47:14;43.20;;;22.67;;
73337;SDS011;61575;49.908;35.556;2023-02-26T01:50:24;44.20;;;21.67;;
73337;SDS011;61575;49.908;35.556;2023-02-26T01:53:32;41.03;;;21.75;;
73337;SDS011;61575;49.908;35.556;2023-02-26T01:56:35;43.33;;;22.48;;
73337;SDS011;61575;49.908;35.556;2023-02-26T01:59:38;42.17;;;20.67;;
73337;SDS011;61575;49.908;35.556;2023-02-26T02:02:46;37.67;;;19.80;;
73337;SDS011;61575;49.908;35.556;2023-02-26T02:05:50;37.00;;;18.70;;
73337;SDS011;61575;49.908;35.556;2023-02-26T02:09:12;39.58;;;18.98;;
73337;SDS011;61575;49.908;35.556;2023-02-26T02:29:32;27.35;;;14.68;;
73337;SDS011;61575;49.908;35.556;2023-02-26T02:32:56;28.35;;;14.27;;
73337;SDS011;61575;49.908;35.556;2023-02-26T02:36:02;24.30;;;13.00;;
73337;SDS011;61575;49.908;35.556;2023-02-26T02:39:13;23.08;;;13.07;;
73337;SDS011;61575;49.908;35.556;2023-02-26T02:42:25;22.52;;;11.45;;
73337;SDS011;61575;49.908;35.556;2023-02-26T02:52:17;15.23;;;8.35;;
73337;SDS011;61575;49.908;35.556;2023-02-26T02:55:25;13.93;;;7.30;;
73337;SDS011;61575;49.908;35.556;2023-02-26T02:58:31;13.07;;;6.65;;
73337;SDS011;61575;49.908;35.556;2023-02-26T03:01:42;12.70;;;6.53;;
73337;SDS011;61575;49.908;35.556;2023-02-26T03:04:46;11.90;;;5.97;;
73337;SDS011;61575;49.908;35.556;2023-02-26T03:07:59;12.23;;;5.95;;
73337;SDS011;61575;49.908;35.556;2023-02-26T03:11:05;14.02;;;6.50;;
73337;SDS011;61575;49.908;35.556;2023-02-26T03:14:09;12.63;;;5.93;;
73337;SDS011;61575;49.908;35.556;2023-02-26T03:20:59;10.00;;;5.30;;
73337;SDS011;61575;49.908;35.556;2023-02-26T03:24:11;10.63;;;5.20;;
73337;SDS011;61575;49.908;35.556;2023-02-26T03:27:34;11.23;;;5.60;;
73337;SDS011;61575;49.908;35.556;2023-02-26T03:30:47;11.10;;;5.57;;
73337;SDS011;61575;49.908;35.556;2023-02-26T03:34:03;9.95;;;5.50;;
73337;SDS011;61575;49.908;35.556;2023-02-26T03:37:17;9.60;;;5.05;;
73337;SDS011;61575;49.908;35.556;2023-02-26T03:40:35;8.48;;;4.30;;
73337;SDS011;61575;49.908;35.556;2023-02-26T03:43:47;11.50;;;4.93;;
73337;SDS011;61575;49.908;35.556;2023-02-26T03:47:04;9.38;;;4.60;;
73337;SDS011;61575;49.908;35.556;2023-02-26T03:50:18;7.53;;;4.00;;
73337;SDS011;61575;49.908;35.556;2023-02-26T03:53:44;9.00;;;4.20;;
73337;SDS011;61575;49.908;35.556;2023-02-26T03:56:50;8.45;;;4.07;;
73337;SDS011;61575;49.908;35.556;2023-02-26T04:03:33;7.60;;;3.88;;
73337;SDS011;61575;49.908;35.556;2023-02-26T04:06:40;10.57;;;5.43;;
73337;SDS011;61575;49.908;35.556;2023-02-26T04:09:43;12.02;;;6.40;;
73337;SDS011;61575;49.908;35.556;2023-02-26T04:12:57;8.90;;;5.40;;
73337;SDS011;61575;49.908;35.556;2023-02-26T04:16:02;7.55;;;4.32;;
73337;SDS011;61575;49.908;35.556;2023-02-26T04:19:05;7.82;;;4.25;;
73337;SDS011;61575;49.908;35.556;2023-02-26T04:22:07;7.40;;;4.18;;
73337;SDS011;61575;49.908;35.556;2023-02-26T04:25:10;8.35;;;4.80;;
73337;SDS011;61575;49.908;35.556;2023-02-26T04:28:12;7.50;;;4.18;;
73337;SDS011;61575;49.908;35.556;2023-02-26T04:31:14;8.65;;;4.07;;
73337;SDS011;61575;49.908;35.556;2023-02-26T04:34:17;7.97;;;4.20;;
73337;SDS011;61575;49.908;35.556;2023-02-26T04:37:21;7.20;;;3.85;;
73337;SDS011;61575;49.908;35.556;2023-02-26T04:40:23;7.93;;;4.97;;
73337;SDS011;61575;49.908;35.556;2023-02-26T04:43:25;10.37;;;6.50;;
73337;SDS011;61575;49.908;35.556;2023-02-26T04:46:44;9.75;;;5.55;;
73337;SDS011;61575;49.908;35.556;2023-02-26T04:49:46;10.65;;;4.97;;
73337;SDS011;61575;49.908;35.556;2023-02-26T04:52:48;7.30;;;4.40;;
73337;SDS011;61575;49.908;35.556;2023-02-26T04:55:50;7.85;;;4.57;;
73337;SDS011;61575;49.908;35.556;2023-02-26T04:58:53;9.88;;;5.38;;
73337;SDS011;61575;49.908;35.556;2023-02-26T05:02:02;9.35;;;5.22;;
73337;SDS011;61575;49.908;35.556;2023-02-26T05:05:04;9.73;;;5.70;;
73337;SDS011;61575;49.908;35.556;2023-02-26T05:11:09;11.55;;;4.75;;
73337;SDS011;61575;49.908;35.556;2023-02-26T05:14:12;9.18;;;5.20;;
73337;SDS011;61575;49.908;35.556;2023-02-26T05:17:18;10.43;;;4.63;;
73337;SDS011;61575;49.908;35.556;2023-02-26T05:20:20;14.10;;;7.10;;
73337;SDS011;61575;49.908;35.556;2023-02-26T05:23:22;17.10;;;9.02;;
73337;SDS011;61575;49.908;35.556;2023-02-26T05:26:24;10.67;;;5.40;;
73337;SDS011;61575;49.908;35.556;2023-02-26T05:29:27;10.60;;;6.30;;
73337;SDS011;61575;49.908;35.556;2023-02-26T05:32:29;14.70;;;9.55;;
73337;SDS011;61575;49.908;35.556;2023-02-26T05:35:32;11.15;;;8.07;;
73337;SDS011;61575;49.908;35.556;2023-02-26T05:38:34;10.38;;;7.03;;
73337;SDS011;61575;49.908;35.556;2023-02-26T05:41:36;9.43;;;5.78;;
73337;SDS011;61575;49.908;35.556;2023-02-26T05:44:38;8.65;;;5.35;;
73337;SDS011;61575;49.908;35.556;2023-02-26T05:47:40;8.75;;;5.55;;
73337;SDS011;61575;49.908;35.556;2023-02-26T05:50:42;8.48;;;5.20;;
73337;SDS011;61575;49.908;35.556;2023-02-26T05:53:44;9.05;;;4.80;;
73337;SDS011;61575;49.908;35.556;2023-02-26T05:56:46;8.57;;;4.80;;
73337;SDS011;61575;49.908;35.556;2023-02-26T05:59:48;8.13;;;4.60;;
73337;SDS011;61575;49.908;35.556;2023-02-26T06:02:53;9.27;;;5.35;;
73337;SDS011;61575;49.908;35.556;2023-02-26T06:05:57;8.43;;;4.95;;
73337;SDS011;61575;49.908;35.556;2023-02-26T06:08:59;9.95;;;5.72;;
73337;SDS011;61575;49.908;35.556;2023-02-26T06:12:02;8.52;;;5.10;;
73337;SDS011;61575;49.908;35.556;2023-02-26T06:15:05;9.32;;;5.28;;
73337;SDS011;61575;49.908;35.556;2023-02-26T06:18:08;8.43;;;4.75;;
73337;SDS011;61575;49.908;35.556;2023-02-26T06:21:10;7.75;;;4.45;;
73337;SDS011;61575;49.908;35.556;2023-02-26T06:24:12;11.47;;;4.87;;
73337;SDS011;61575;49.908;35.556;2023-02-26T06:27:14;8.43;;;4.55;;
73337;SDS011;61575;49.908;35.556;2023-02-26T06:30:16;7.13;;;4.37;;
73337;SDS011;61575;49.908;35.556;2023-02-26T06:33:18;6.82;;;3.80;;
73337;SDS011;61575;49.908;35.556;2023-02-26T06:36:21;9.15;;;4.53;;
73337;SDS011;61575;49.908;35.556;2023-02-26T06:39:23;7.38;;;4.30;;
73337;SDS011;61575;49.908;35.556;2023-02-26T06:42:25;7.20;;;4.32;;
73337;SDS011;61575;49.908;35.556;2023-02-26T06:45:27;7.95;;;4.53;;
73337;SDS011;61575;49.908;35.556;2023-02-26T06:48:29;9.18;;;5.00;;
73337;SDS011;61575;49.908;35.556;2023-02-26T06:51:34;9.38;;;5.22;;
73337;SDS011;61575;49.908;35.556;2023-02-26T06:54:36;7.60;;;5.03;;
73337;SDS011;61575;49.908;35.556;2023-02-26T06:57:38;8.75;;;5.28;;
73337;SDS011;61575;49.908;35.556;2023-02-26T07:00:42;8.87;;;5.03;;
73337;SDS011;61575;49.908;35.556;2023-02-26T07:03:44;10.60;;;5.32;;
73337;SDS011;61575;49.908;35.556;2023-02-26T07:06:46;9.68;;;5.90;;
73337;SDS011;61575;49.908;35.556;2023-02-26T07:09:51;9.80;;;5.63;;
73337;SDS011;61575;49.908;35.556;2023-02-26T07:12:53;8.95;;;5.50;;
73337;SDS011;61575;49.908;35.556;2023-02-26T07:15:55;10.25;;;5.32;;
73337;SDS011;61575;49.908;35.556;2023-02-26T07:18:57;11.18;;;6.05;;
73337;SDS011;61575;49.908;35.556;2023-02-26T07:21:59;10.07;;;5.18;;
73337;SDS011;61575;49.908;35.556;2023-02-26T07:25:01;8.43;;;4.73;;
73337;SDS011;61575;49.908;35.556;2023-02-26T07:28:03;9.65;;;4.95;;
73337;SDS011;61575;49.908;35.556;2023-02-26T07:31:06;10.63;;;5.88;;
73337;SDS011;61575;49.908;35.556;2023-02-26T07:34:08;10.37;;;5.53;;
73337;SDS011;61575;49.908;35.556;2023-02-26T07:37:10;10.18;;;5.30;;
73337;SDS011;61575;49.908;35.556;2023-02-26T07:40:12;8.93;;;5.47;;
73337;SDS011;61575;49.908;35.556;2023-02-26T07:43:14;9.70;;;5.28;;
73337;SDS011;61575;49.908;35.556;2023-02-26T07:46:16;8.23;;;4.57;;
73337;SDS011;61575;49.908;35.556;2023-02-26T07:49:18;10.83;;;5.77;;
73337;SDS011;61575;49.908;35.556;2023-02-26T07:52:20;8.43;;;4.73;;
73337;SDS011;61575;49.908;35.556;2023-02-26T07:55:23;8.57;;;4.70;;
73337;SDS011;61575;49.908;35.556;2023-02-26T08:01:43;8.57;;;5.00;;
73337;SDS011;61575;49.908;35.556;2023-02-26T08:04:46;7.70;;;4.67;;
73337;SDS011;61575;49.908;35.556;2023-02-26T08:07:48;7.33;;;4.50;;
73337;SDS011;61575;49.908;35.556;2023-02-26T08:10:49;10.57;;;4.97;;
73337;SDS011;61575;49.908;35.556;2023-02-26T08:13:52;8.73;;;4.95;;
73337;SDS011;61575;49.908;35.556;2023-02-26T08:16:55;9.13;;;4.93;;
73337;SDS011;61575;49.908;35.556;2023-02-26T08:19:57;8.80;;;4.90;;
73337;SDS011;61575;49.908;35.556;2023-02-26T08:22:59;10.75;;;5.15;;
73337;SDS011;61575;49.908;35.556;2023-02-26T08:26:05;10.98;;;5.38;;
73337;SDS011;61575;49.908;35.556;2023-02-26T08:29:09;8.90;;;5.45;;
73337;SDS011;61575;49.908;35.556;2023-02-26T08:32:11;8.77;;;5.30;;
73337;SDS011;61575;49.908;35.556;2023-02-26T08:35:18;9.48;;;5.40;;
73337;SDS011;61575;49.908;35.556;2023-02-26T08:38:20;9.10;;;5.38;;
73337;SDS011;61575;49.908;35.556;2023-02-26T08:41:22;10.18;;;5.60;;
73337;SDS011;61575;49.908;35.556;2023-02-26T08:44:25;8.80;;;5.55;;
73337;SDS011;61575;49.908;35.556;2023-02-26T08:47:27;9.38;;;5.25;;
73337;SDS011;61575;49.908;35.556;2023-02-26T08:50:29;9.47;;;5.50;;
73337;SDS011;61575;49.908;35.556;2023-02-26T08:53:31;8.82;;;5.32;;
73337;SDS011;61575;49.908;35.556;2023-02-26T08:56:33;9.70;;;5.35;;
73337;SDS011;61575;49.908;35.556;2023-02-26T08:59:35;10.27;;;5.68;;
73337;SDS011;61575;49.908;35.556;2023-02-26T09:02:37;11.05;;;6.07;;
73337;SDS011;61575;49.908;35.556;2023-02-26T09:05:39;9.70;;;5.38;;
73337;SDS011;61575;49.908;35.556;2023-02-26T09:08:41;9.70;;;5.80;;
73337;SDS011;61575;49.908;35.556;2023-02-26T09:11:43;10.00;;;5.73;;
73337;SDS011;61575;49.908;35.556;2023-02-26T09:14:45;8.82;;;5.25;;
73337;SDS011;61575;49.908;35.556;2023-02-26T09:17:47;10.05;;;5.80;;
73337;SDS011;61575;49.908;35.556;2023-02-26T09:20:50;12.02;;;6.15;;
73337;SDS011;61575;49.908;35.556;2023-02-26T09:23:51;10.23;;;5.93;;
73337;SDS011;61575;49.908;35.556;2023-02-26T09:26:53;11.68;;;6.50;;
73337;SDS011;61575;49.908;35.556;2023-02-26T09:29:55;11.45;;;6.10;;
73337;SDS011;61575;49.908;35.556;2023-02-26T09:32:57;10.77;;;6.15;;
73337;SDS011;61575;49.908;35.556;2023-02-26T09:35:59;10.68;;;6.20;;
73337;SDS011;61575;49.908;35.556;2023-02-26T09:39:02;9.77;;;6.47;;
73337;SDS011;61575;49.908;35.556;2023-02-26T09:42:11;12.40;;;6.78;;
73337;SDS011;61575;49.908;35.556;2023-02-26T09:45:28;9.32;;;5.57;;
73337;SDS011;61575;49.908;35.556;2023-02-26T09:48:34;10.13;;;5.60;;
73337;SDS011;61575;49.908;35.556;2023-02-26T09:51:39;12.32;;;6.45;;
73337;SDS011;61575;49.908;35.556;2023-02-26T09:54:43;11.75;;;6.40;;
73337;SDS011;61575;49.908;35.556;2023-02-26T09:57:47;9.82;;;5.75;;
73337;SDS011;61575;49.908;35.556;2023-02-26T10:01:12;11.57;;;6.88;;
73337;SDS011;61575;49.908;35.556;2023-02-26T10:14:17;9.52;;;6.10;;
73337;SDS011;61575;49.908;35.556;2023-02-26T10:17:29;11.07;;;5.72;;
73337;SDS011;61575;49.908;35.556;2023-02-26T10:20:54;9.63;;;5.80;;
73337;SDS011;61575;49.908;35.556;2023-02-26T10:24:00;11.38;;;6.60;;
73337;SDS011;61575;49.908;35.556;2023-02-26T10:27:11;9.50;;;5.72;;
73337;SDS011;61575;49.908;35.556;2023-02-26T10:40:02;8.60;;;5.25;;
73337;SDS011;61575;49.908;35.556;2023-02-26T10:43:15;9.00;;;5.10;;
73337;SDS011;61575;49.908;35.556;2023-02-26T10:52:52;11.60;;;6.32;;
73337;SDS011;61575;49.908;35.556;2023-02-26T10:59:05;8.45;;;5.25;;
73337;SDS011;61575;49.908;35.556;2023-02-26T11:02:13;9.00;;;4.90;;
73337;SDS011;61575;49.908;35.556;2023-02-26T11:05:41;8.65;;;5.05;;
73337;SDS011;61575;49.908;35.556;2023-02-26T11:08:44;9.57;;;5.15;;
73337;SDS011;61575;49.908;35.556;2023-02-26T11:11:53;7.32;;;4.43;;
73337;SDS011;61575;49.908;35.556;2023-02-26T11:14:57;7.35;;;4.20;;
73337;SDS011;61575;49.908;35.556;2023-02-26T11:18:01;6.65;;;4.20;;
73337;SDS011;61575;49.908;35.556;2023-02-26T11:24:10;7.07;;;4.40;;
73337;SDS011;61575;49.908;35.556;2023-02-26T11:27:18;6.72;;;3.90;;
73337;SDS011;61575;49.908;35.556;2023-02-26T11:30:24;7.53;;;4.25;;
73337;SDS011;61575;49.908;35.556;2023-02-26T11:33:43;7.13;;;3.88;;
73337;SDS011;61575;49.908;35.556;2023-02-26T11:36:46;7.85;;;4.40;;
73337;SDS011;61575;49.908;35.556;2023-02-26T11:39:54;8.82;;;4.78;;
73337;SDS011;61575;49.908;35.556;2023-02-26T11:42:59;7.53;;;3.92;;
73337;SDS011;61575;49.908;35.556;2023-02-26T11:46:06;7.60;;;3.92;;
73337;SDS011;61575;49.908;35.556;2023-02-26T11:49:13;7.00;;;3.92;;
73337;SDS011;61575;49.908;35.556;2023-02-26T11:52:33;8.00;;;4.20;;
73337;SDS011;61575;49.908;35.556;2023-02-26T11:55:37;6.60;;;4.00;;
73337;SDS011;61575;49.908;35.556;2023-02-26T11:58:50;7.70;;;4.30;;
73337;SDS011;61575;49.908;35.556;2023-02-26T12:01:56;8.48;;;4.22;;
73337;SDS011;61575;49.908;35.556;2023-02-26T12:05:04;9.48;;;4.60;;
73337;SDS011;61575;49.908;35.556;2023-02-26T12:08:18;8.43;;;4.80;;
73337;SDS011;61575;49.908;35.556;2023-02-26T12:11:43;8.38;;;4.43;;
73337;SDS011;61575;49.908;35.556;2023-02-26T12:45:53;9.02;;;5.43;;
73337;SDS011;61575;49.908;35.556;2023-02-26T12:56:27;10.43;;;5.53;;
73337;SDS011;61575;49.908;35.556;2023-02-26T13:20:03;12.60;;;7.25;;
73337;SDS011;61575;49.908;35.556;2023-02-26T13:23:17;21.00;;;11.73;;
73337;SDS011;61575;49.908;35.556;2023-02-26T13:26:24;14.07;;;6.95;;
73337;SDS011;61575;49.908;35.556;2023-02-26T13:29:34;10.70;;;6.18;;
73337;SDS011;61575;49.908;35.556;2023-02-26T13:32:41;9.57;;;5.32;;
73337;SDS011;61575;49.908;35.556;2023-02-26T13:35:46;14.27;;;7.45;;
73337;SDS011;61575;49.908;35.556;2023-02-26T13:42:17;16.97;;;9.40;;
73337;SDS011;61575;49.908;35.556;2023-02-26T13:52:01;11.20;;;6.63;;
73337;SDS011;61575;49.908;35.556;2023-02-26T13:55:03;18.60;;;12.10;;
73337;SDS011;61575;49.908;35.556;2023-02-26T14:01:28;11.20;;;7.43;;
73337;SDS011;61575;49.908;35.556;2023-02-26T14:04:48;10.32;;;6.10;;
73337;SDS011;61575;49.908;35.556;2023-02-26T14:08:07;13.50;;;7.85;;
73337;SDS011;61575;49.908;35.556;2023-02-26T14:14:44;7.88;;;4.65;;
73337;SDS011;61575;49.908;35.556;2023-02-26T14:18:10;7.10;;;4.20;;
73337;SDS011;61575;49.908;35.556;2023-02-26T14:24:38;5.85;;;3.38;;
73337;SDS011;61575;49.908;35.556;2023-02-26T14:27:47;7.45;;;3.40;;
73337;SDS011;61575;49.908;35.556;2023-02-26T14:30:51;5.75;;;3.38;;
73337;SDS011;61575;49.908;35.556;2023-02-26T14:34:21;5.05;;;3.22;;
73337;SDS011;61575;49.908;35.556;2023-02-26T14:37:30;7.93;;;4.13;;
73337;SDS011;61575;49.908;35.556;2023-02-26T14:44:38;7.03;;;4.05;;
73337;SDS011;61575;49.908;35.556;2023-02-26T14:47:44;8.90;;;4.75;;
73337;SDS011;61575;49.908;35.556;2023-02-26T14:57:13;12.55;;;6.45;;
73337;SDS011;61575;49.908;35.556;2023-02-26T15:07:52;19.23;;;10.20;;
73337;SDS011;61575;49.908;35.556;2023-02-26T15:16:52;18.30;;;10.80;;
73337;SDS011;61575;49.908;35.556;2023-02-26T15:29:35;10.73;;;6.57;;
73337;SDS011;61575;49.908;35.556;2023-02-26T15:32:42;11.95;;;7.03;;
73337;SDS011;61575;49.908;35.556;2023-02-26T15:35:46;10.90;;;6.38;;
73337;SDS011;61575;49.908;35.556;2023-02-26T15:38:53;11.75;;;6.63;;
73337;SDS011;61575;49.908;35.556;2023-02-26T15:41:57;10.55;;;6.18;;
73337;SDS011;61575;49.908;35.556;2023-02-26T15:45:00;10.40;;;6.35;;
73337;SDS011;61575;49.908;35.556;2023-02-26T15:48:06;9.27;;;6.20;;
73337;SDS011;61575;49.908;35.556;2023-02-26T15:51:11;10.02;;;5.35;;
73337;SDS011;61575;49.908;35.556;2023-02-26T15:54:18;11.07;;;5.85;;
73337;SDS011;61575;49.908;35.556;2023-02-26T15:57:24;10.95;;;6.03;;
73337;SDS011;61575;49.908;35.556;2023-02-26T16:00:27;10.23;;;5.60;;
73337;SDS011;61575;49.908;35.556;2023-02-26T16:03:34;10.63;;;5.32;;
73337;SDS011;61575;49.908;35.556;2023-02-26T16:06:39;9.70;;;5.18;;
73337;SDS011;61575;49.908;35.556;2023-02-26T16:09:48;10.02;;;5.93;;
73337;SDS011;61575;49.908;35.556;2023-02-26T16:12:52;11.25;;;6.05;;
73337;SDS011;61575;49.908;35.556;2023-02-26T16:15:58;10.32;;;6.30;;
73337;SDS011;61575;49.908;35.556;2023-02-26T16:19:05;11.07;;;6.45;;
73337;SDS011;61575;49.908;35.556;2023-02-26T16:22:28;9.40;;;5.63;;
73337;SDS011;61575;49.908;35.556;2023-02-26T16:25:47;9.38;;;5.65;;
73337;SDS011;61575;49.908;35.556;2023-02-26T16:29:02;9.23;;;6.20;;
73337;SDS011;61575;49.908;35.556;2023-02-26T16:32:08;12.60;;;7.47;;
73337;SDS011;61575;49.908;35.556;2023-02-26T16:35:18;13.40;;;7.18;;
73337;SDS011;61575;49.908;35.556;2023-02-26T16:38:24;11.35;;;6.45;;
73337;SDS011;61575;49.908;35.556;2023-02-26T16:41:34;12.02;;;6.20;;
73337;SDS011;61575;49.908;35.556;2023-02-26T16:44:46;15.10;;;7.28;;
73337;SDS011;61575;49.908;35.556;2023-02-26T16:47:53;10.73;;;6.22;;
73337;SDS011;61575;49.908;35.556;2023-02-26T16:50:58;12.80;;;8.30;;
73337;SDS011;61575;49.908;35.556;2023-02-26T16:54:08;15.00;;;8.80;;
73337;SDS011;61575;49.908;35.556;2023-02-26T16:57:19;13.18;;;8.20;;
73337;SDS011;61575;49.908;35.556;2023-02-26T17:00:26;13.98;;;8.30;;
73337;SDS011;61575;49.908;35.556;2023-02-26T17:03:32;9.18;;;5.40;;
73337;SDS011;61575;49.908;35.556;2023-02-26T17:06:37;9.05;;;4.93;;
73337;SDS011;61575;49.908;35.556;2023-02-26T17:09:43;9.77;;;5.43;;
73337;SDS011;61575;49.908;35.556;2023-02-26T17:12:49;10.93;;;5.95;;
73337;SDS011;61575;49.908;35.556;2023-02-26T17:15:54;10.32;;;5.82;;
73337;SDS011;61575;49.908;35.556;2023-02-26T17:19:02;8.73;;;4.90;;
73337;SDS011;61575;49.908;35.556;2023-02-26T17:22:04;9.38;;;4.97;;
73337;SDS011;61575;49.908;35.556;2023-02-26T17:25:13;7.78;;;4.97;;
73337;SDS011;61575;49.908;35.556;2023-02-26T17:28:21;9.85;;;5.47;;
73337;SDS011;61575;49.908;35.556;2023-02-26T17:31:27;9.25;;;5.50;;
73337;SDS011;61575;49.908;35.556;2023-02-26T17:34:29;12.25;;;7.35;;
73337;SDS011;61575;49.908;35.556;2023-02-26T17:37:32;9.20;;;5.23;;
73337;SDS011;61575;49.908;35.556;2023-02-26T17:40:35;10.55;;;5.88;;
73337;SDS011;61575;49.908;35.556;2023-02-26T17:46:40;12.25;;;6.00;;
73337;SDS011;61575;49.908;35.556;2023-02-26T17:49:42;9.23;;;5.38;;
73337;SDS011;61575;49.908;35.556;2023-02-26T17:52:47;9.80;;;5.45;;
73337;SDS011;61575;49.908;35.556;2023-02-26T17:55:52;11.55;;;6.35;;
73337;SDS011;61575;49.908;35.556;2023-02-26T17:58:55;12.25;;;7.45;;
73337;SDS011;61575;49.908;35.556;2023-02-26T18:01:58;12.18;;;7.38;;
73337;SDS011;61575;49.908;35.556;2023-02-26T18:05:01;11.88;;;7.10;;
73337;SDS011;61575;49.908;35.556;2023-02-26T18:08:06;11.30;;;7.38;;
73337;SDS011;61575;49.908;35.556;2023-02-26T18:11:28;11.35;;;7.22;;
73337;SDS011;61575;49.908;35.556;2023-02-26T18:14:30;13.65;;;6.97;;
73337;SDS011;61575;49.908;35.556;2023-02-26T18:17:31;10.63;;;6.55;;
73337;SDS011;61575;49.908;35.556;2023-02-26T18:20:34;11.20;;;6.32;;
73337;SDS011;61575;49.908;35.556;2023-02-26T18:23:40;11.48;;;6.03;;
73337;SDS011;61575;49.908;35.556;2023-02-26T18:26:42;9.55;;;6.00;;
73337;SDS011;61575;49.908;35.556;2023-02-26T18:29:44;11.38;;;6.55;;
73337;SDS011;61575;49.908;35.556;2023-02-26T18:32:49;11.32;;;6.28;;
73337;SDS011;61575;49.908;35.556;2023-02-26T18:35:52;11.47;;;5.97;;
73337;SDS011;61575;49.908;35.556;2023-02-26T18:38:57;8.82;;;5.68;;
73337;SDS011;61575;49.908;35.556;2023-02-26T18:42:02;11.85;;;6.45;;
73337;SDS011;61575;49.908;35.556;2023-02-26T18:45:04;11.55;;;7.25;;
73337;SDS011;61575;49.908;35.556;2023-02-26T18:48:07;12.27;;;7.80;;
73337;SDS011;61575;49.908;35.556;2023-02-26T18:51:12;12.63;;;8.10;;
73337;SDS011;61575;49.908;35.556;2023-02-26T18:54:14;11.55;;;6.30;;
73337;SDS011;61575;49.908;35.556;2023-02-26T18:57:15;9.05;;;5.57;;
73337;SDS011;61575;49.908;35.556;2023-02-26T19:00:18;10.17;;;5.90;;
73337;SDS011;61575;49.908;35.556;2023-02-26T19:03:22;10.13;;;6.13;;
73337;SDS011;61575;49.908;35.556;2023-02-26T19:06:23;10.48;;;6.65;;
73337;SDS011;61575;49.908;35.556;2023-02-26T19:12:29;11.65;;;6.80;;
73337;SDS011;61575;49.908;35.556;2023-02-26T19:15:31;11.73;;;7.15;;
73337;SDS011;61575;49.908;35.556;2023-02-26T19:18:35;9.88;;;6.13;;
73337;SDS011;61575;49.908;35.556;2023-02-26T19:21:37;11.27;;;6.30;;
73337;SDS011;61575;49.908;35.556;2023-02-26T19:24:41;10.35;;;6.40;;
73337;SDS011;61575;49.908;35.556;2023-02-26T19:27:43;10.55;;;6.72;;
73337;SDS011;61575;49.908;35.556;2023-02-26T19:30:45;11.55;;;7.10;;
73337;SDS011;61575;49.908;35.556;2023-02-26T19:33:47;15.45;;;9.48;;
73337;SDS011;61575;49.908;35.556;2023-02-26T19:36:49;23.40;;;13.13;;
73337;SDS011;61575;49.908;35.556;2023-02-26T19:39:52;21.52;;;11.80;;
73337;SDS011;61575;49.908;35.556;2023-02-26T19:42:54;19.48;;;11.68;;
73337;SDS011;61575;49.908;35.556;2023-02-26T19:45:56;16.77;;;10.03;;
73337;SDS011;61575;49.908;35.556;2023-02-26T19:48:58;16.63;;;9.45;;
73337;SDS011;61575;49.908;35.556;2023-02-26T19:52:03;17.77;;;11.05;;
73337;SDS011;61575;49.908;35.556;2023-02-26T19:55:05;18.00;;;10.70;;
73337;SDS011;61575;49.908;35.556;2023-02-26T19:58:09;20.50;;;12.75;;
73337;SDS011;61575;49.908;35.556;2023-02-26T20:01:10;21.73;;;13.43;;
73337;SDS011;61575;49.908;35.556;2023-02-26T20:04:12;29.33;;;17.42;;
73337;SDS011;61575;49.908;35.556;2023-02-26T20:07:15;29.63;;;16.95;;
73337;SDS011;61575;49.908;35.556;2023-02-26T20:10:17;34.40;;;20.60;;
73337;SDS011;61575;49.908;35.556;2023-02-26T20:13:20;25.35;;;14.65;;
73337;SDS011;61575;49.908;35.556;2023-02-26T20:16:22;19.52;;;11.48;;
73337;SDS011;61575;49.908;35.556;2023-02-26T20:19:27;19.88;;;10.57;;
73337;SDS011;61575;49.908;35.556;2023-02-26T20:22:29;16.77;;;10.50;;
73337;SDS011;61575;49.908;35.556;2023-02-26T20:25:33;19.15;;;11.85;;
73337;SDS011;61575;49.908;35.556;2023-02-26T20:28:35;24.00;;;14.43;;
73337;SDS011;61575;49.908;35.556;2023-02-26T20:31:37;23.15;;;13.13;;
73337;SDS011;61575;49.908;35.556;2023-02-26T20:34:39;22.47;;;13.33;;
73337;SDS011;61575;49.908;35.556;2023-02-26T20:37:41;19.05;;;11.52;;
73337;SDS011;61575;49.908;35.556;2023-02-26T20:40:43;15.48;;;9.55;;
73337;SDS011;61575;49.908;35.556;2023-02-26T20:43:45;18.27;;;11.13;;
73337;SDS011;61575;49.908;35.556;2023-02-26T20:46:47;14.63;;;8.98;;
73337;SDS011;61575;49.908;35.556;2023-02-26T20:49:51;23.60;;;13.32;;
73337;SDS011;61575;49.908;35.556;2023-02-26T20:52:58;30.15;;;16.23;;
73337;SDS011;61575;49.908;35.556;2023-02-26T20:56:00;30.77;;;16.48;;
73337;SDS011;61575;49.908;35.556;2023-02-26T20:59:02;23.00;;;13.52;;
73337;SDS011;61575;49.908;35.556;2023-02-26T21:02:04;20.38;;;12.63;;
73337;SDS011;61575;49.908;35.556;2023-02-26T21:05:06;14.68;;;9.15;;
73337;SDS011;61575;49.908;35.556;2023-02-26T21:08:10;18.23;;;11.45;;
73337;SDS011;61575;49.908;35.556;2023-02-26T21:11:11;21.98;;;13.43;;
73337;SDS011;61575;49.908;35.556;2023-02-26T21:14:14;28.88;;;17.63;;
73337;SDS011;61575;49.908;35.556;2023-02-26T21:17:16;40.60;;;22.97;;
73337;SDS011;61575;49.908;35.556;2023-02-26T21:20:18;39.50;;;22.67;;
73337;SDS011;61575;49.908;35.556;2023-02-26T21:23:24;29.73;;;17.05;;
73337;SDS011;61575;49.908;35.556;2023-02-26T21:26:26;28.45;;;16.55;;
73337;SDS011;61575;49.908;35.556;2023-02-26T21:29:28;19.77;;;11.13;;
73337;SDS011;61575;49.908;35.556;2023-02-26T21:32:30;21.23;;;12.68;;
73337;SDS011;61575;49.908;35.556;2023-02-26T21:35:32;16.38;;;10.63;;
73337;SDS011;61575;49.908;35.556;2023-02-26T21:38:37;19.42;;;10.00;;